Hitachi, Japan
Current Conditions -  °F | °C
As of 12:00 AM on Sunday 21 Dec 2014 (Local Time) from RJAH Reporting Station
Haze Haze  
Wind Chill: 37°   Ceiling: 300
Heat Index: 43°   Visibility: 1.1mi
Dew Point: 41°   Wind: 10mph
Humidity: 93%   Direction: 240°WSW
Pressure: 29.59"   Gusts: NA
Location:  36.59°N, 140.66°E
Report Text: RJAH 201500Z 24009KT 1800 BR FEW001 BKN003 BKN010 06/05 Q1002
Loading
Personal Weather Stations






























Interactive Weather Map New forecast layout! Learn more

10-Day Weather Forecast

Advertisements
Track Severe Weather on mobile